sensor_id;sensor_type;location;lat;lon;timestamp;pressure;altitude;pressure_sealevel;temperature;humidity
3428;BME280;1727;42.624;23.406;2023-04-23T00:01:17;94818.16;;;11.37;78.75
3428;BME280;1727;42.624;23.406;2023-04-23T00:03:45;94817.19;;;11.38;78.14
3428;BME280;1727;42.624;23.406;2023-04-23T00:06:14;94813.06;;;11.36;79.19
3428;BME280;1727;42.624;23.406;2023-04-23T00:08:42;94814.97;;;11.34;78.15
3428;BME280;1727;42.624;23.406;2023-04-23T00:11:09;94813.59;;;11.30;77.29
3428;BME280;1727;42.624;23.406;2023-04-23T00:13:37;94815.22;;;11.21;78.33
3428;BME280;1727;42.624;23.406;2023-04-23T00:16:04;94811.63;;;11.12;78.08
3428;BME280;1727;42.624;23.406;2023-04-23T00:18:33;94812.44;;;11.13;78.69
3428;BME280;1727;42.624;23.406;2023-04-23T00:20:59;94813.28;;;11.13;78.22
3428;BME280;1727;42.624;23.406;2023-04-23T00:23:27;94813.00;;;11.07;78.22
3428;BME280;1727;42.624;23.406;2023-04-23T00:26:09;94815.34;;;11.00;78.76
3428;BME280;1727;42.624;23.406;2023-04-23T00:28:36;94815.84;;;10.94;79.74
3428;BME280;1727;42.624;23.406;2023-04-23T00:31:02;94819.44;;;10.93;79.53
3428;BME280;1727;42.624;23.406;2023-04-23T00:33:29;94821.38;;;10.91;79.09
3428;BME280;1727;42.624;23.406;2023-04-23T00:35:58;94813.63;;;10.90;79.13
3428;BME280;1727;42.624;23.406;2023-04-23T00:38:24;94810.31;;;10.88;80.00
3428;BME280;1727;42.624;23.406;2023-04-23T00:40:51;94810.59;;;10.84;80.18
3428;BME280;1727;42.624;23.406;2023-04-23T00:43:19;94800.75;;;10.77;79.48
3428;BME280;1727;42.624;23.406;2023-04-23T00:45:46;94804.16;;;10.68;79.39
3428;BME280;1727;42.624;23.406;2023-04-23T00:48:13;94800.56;;;10.59;80.53
3428;BME280;1727;42.624;23.406;2023-04-23T00:50:40;94802.63;;;10.55;80.48
3428;BME280;1727;42.624;23.406;2023-04-23T00:53:09;94794.88;;;10.54;81.42
3428;BME280;1727;42.624;23.406;2023-04-23T00:58:57;94802.44;;;10.47;82.07
3428;BME280;1727;42.624;23.406;2023-04-23T01:01:27;94809.69;;;10.34;83.39
3428;BME280;1727;42.624;23.406;2023-04-23T01:03:54;94803.22;;;10.38;83.59
3428;BME280;1727;42.624;23.406;2023-04-23T01:06:22;94794.91;;;10.33;83.97
3428;BME280;1727;42.624;23.406;2023-04-23T01:12:16;94807.38;;;10.20;84.63
3428;BME280;1727;42.624;23.406;2023-04-23T01:14:43;94808.16;;;10.11;86.28
3428;BME280;1727;42.624;23.406;2023-04-23T01:17:11;94811.94;;;10.18;86.34
3428;BME280;1727;42.624;23.406;2023-04-23T01:19:39;94815.03;;;10.23;85.24
3428;BME280;1727;42.624;23.406;2023-04-23T01:22:09;94820.81;;;10.06;86.09
3428;BME280;1727;42.624;23.406;2023-04-23T01:24:37;94803.09;;;9.77;86.62
3428;BME280;1727;42.624;23.406;2023-04-23T01:27:04;94816.00;;;9.69;86.72
3428;BME280;1727;42.624;23.406;2023-04-23T01:29:32;94816.16;;;9.68;86.65
3428;BME280;1727;42.624;23.406;2023-04-23T01:32:02;94807.53;;;9.56;86.99
3428;BME280;1727;42.624;23.406;2023-04-23T01:34:29;94827.16;;;9.50;86.79
3428;BME280;1727;42.624;23.406;2023-04-23T01:36:57;94819.53;;;9.58;86.09
3428;BME280;1727;42.624;23.406;2023-04-23T01:39:26;94820.31;;;9.70;86.52
3428;BME280;1727;42.624;23.406;2023-04-23T01:41:52;94827.50;;;9.78;85.58
3428;BME280;1727;42.624;23.406;2023-04-23T01:44:19;94827.72;;;9.65;85.96
3428;BME280;1727;42.624;23.406;2023-04-23T01:46:46;94829.19;;;9.58;85.95
3428;BME280;1727;42.624;23.406;2023-04-23T01:49:13;94829.31;;;9.56;86.17
3428;BME280;1727;42.624;23.406;2023-04-23T01:55:11;94832.88;;;9.76;84.89
3428;BME280;1727;42.624;23.406;2023-04-23T01:57:38;94839.06;;;9.86;85.25
3428;BME280;1727;42.624;23.406;2023-04-23T02:00:07;94831.88;;;9.88;85.27
3428;BME280;1727;42.624;23.406;2023-04-23T02:02:35;94838.53;;;9.92;84.04
3428;BME280;1727;42.624;23.406;2023-04-23T02:05:04;94838.03;;;9.99;84.40
3428;BME280;1727;42.624;23.406;2023-04-23T02:07:35;94838.03;;;9.99;83.18
3428;BME280;1727;42.624;23.406;2023-04-23T02:10:02;94840.38;;;10.02;82.78
3428;BME280;1727;42.624;23.406;2023-04-23T02:12:31;94835.84;;;10.04;82.73
3428;BME280;1727;42.624;23.406;2023-04-23T02:14:57;94840.94;;;10.05;82.84
3428;BME280;1727;42.624;23.406;2023-04-23T02:24:07;94834.75;;;10.06;82.97
3428;BME280;1727;42.624;23.406;2023-04-23T02:26:35;94842.34;;;10.09;83.07
3428;BME280;1727;42.624;23.406;2023-04-23T02:29:03;94842.22;;;10.11;82.77
3428;BME280;1727;42.624;23.406;2023-04-23T02:31:30;94833.53;;;10.10;83.06
3428;BME280;1727;42.624;23.406;2023-04-23T02:33:57;94835.09;;;10.13;81.87
3428;BME280;1727;42.624;23.406;2023-04-23T02:36:24;94829.63;;;10.05;82.63
3428;BME280;1727;42.624;23.406;2023-04-23T02:38:52;94832.66;;;10.00;82.56
3428;BME280;1727;42.624;23.406;2023-04-23T02:41:19;94819.09;;;9.95;81.93
3428;BME280;1727;42.624;23.406;2023-04-23T02:43:46;94831.38;;;9.94;82.16
3428;BME280;1727;42.624;23.406;2023-04-23T02:46:14;94823.91;;;9.90;82.56
3428;BME280;1727;42.624;23.406;2023-04-23T02:48:41;94831.44;;;9.83;82.80
3428;BME280;1727;42.624;23.406;2023-04-23T02:51:10;94830.66;;;9.72;84.49
3428;BME280;1727;42.624;23.406;2023-04-23T02:53:37;94825.47;;;9.60;84.26
3428;BME280;1727;42.624;23.406;2023-04-23T02:56:06;94832.94;;;9.65;84.86
3428;BME280;1727;42.624;23.406;2023-04-23T02:58:33;94834.34;;;9.69;84.26
3428;BME280;1727;42.624;23.406;2023-04-23T03:01:00;94835.31;;;9.68;84.21
3428;BME280;1727;42.624;23.406;2023-04-23T03:03:32;94846.31;;;9.62;84.11
3428;BME280;1727;42.624;23.406;2023-04-23T03:06:00;94847.50;;;9.58;84.21
3428;BME280;1727;42.624;23.406;2023-04-23T03:12:04;94846.13;;;9.43;84.52
3428;BME280;1727;42.624;23.406;2023-04-23T03:14:30;94844.72;;;9.39;84.90
3428;BME280;1727;42.624;23.406;2023-04-23T03:16:57;94855.44;;;9.36;86.17
3428;BME280;1727;42.624;23.406;2023-04-23T03:19:25;94848.66;;;9.33;86.10
3428;BME280;1727;42.624;23.406;2023-04-23T03:21:52;94847.84;;;9.32;85.98
3428;BME280;1727;42.624;23.406;2023-04-23T03:24:19;94849.03;;;9.28;86.60
3428;BME280;1727;42.624;23.406;2023-04-23T03:26:46;94854.84;;;9.32;86.81
3428;BME280;1727;42.624;23.406;2023-04-23T03:29:14;94846.31;;;9.30;86.96
3428;BME280;1727;42.624;23.406;2023-04-23T03:31:41;94855.44;;;9.36;86.54
3428;BME280;1727;42.624;23.406;2023-04-23T03:34:07;94848.22;;;9.28;87.28
3428;BME280;1727;42.624;23.406;2023-04-23T03:36:36;94855.56;;;9.34;86.92
3428;BME280;1727;42.624;23.406;2023-04-23T03:39:02;94858.63;;;9.39;87.07
3428;BME280;1727;42.624;23.406;2023-04-23T03:48:12;94855.91;;;9.41;86.46
3428;BME280;1727;42.624;23.406;2023-04-23T03:50:40;94864.34;;;9.44;86.12
3428;BME280;1727;42.624;23.406;2023-04-23T03:53:08;94869.19;;;9.49;85.86
3428;BME280;1727;42.624;23.406;2023-04-23T03:55:35;94868.72;;;9.55;85.86
3428;BME280;1727;42.624;23.406;2023-04-23T03:58:02;94882.84;;;9.63;86.15
3428;BME280;1727;42.624;23.406;2023-04-23T04:00:29;94877.22;;;9.68;85.75
3428;BME280;1727;42.624;23.406;2023-04-23T04:02:56;94883.88;;;9.72;84.92
3428;BME280;1727;42.624;23.406;2023-04-23T04:05:22;94876.53;;;9.66;85.06
3428;BME280;1727;42.624;23.406;2023-04-23T04:07:49;94885.34;;;9.65;84.58
3428;BME280;1727;42.624;23.406;2023-04-23T04:10:17;94884.06;;;9.59;84.14
3428;BME280;1727;42.624;23.406;2023-04-23T04:12:44;94887.50;;;9.60;84.73
3428;BME280;1727;42.624;23.406;2023-04-23T04:15:12;94885.38;;;9.54;84.32
3428;BME280;1727;42.624;23.406;2023-04-23T04:17:39;94880.22;;;9.63;85.61
3428;BME280;1727;42.624;23.406;2023-04-23T04:20:06;94875.94;;;10.15;84.42
3428;BME280;1727;42.624;23.406;2023-04-23T04:22:34;94881.69;;;10.72;82.71
3428;BME280;1727;42.624;23.406;2023-04-23T04:25:01;94883.72;;;11.39;79.60
3428;BME280;1727;42.624;23.406;2023-04-23T04:27:30;94873.28;;;13.10;84.04
3428;BME280;1727;42.624;23.406;2023-04-23T04:29:59;94883.84;;;13.10;72.58
3428;BME280;1727;42.624;23.406;2023-04-23T04:32:26;94880.44;;;13.27;70.39
3428;BME280;1727;42.624;23.406;2023-04-23T04:34:53;94895.78;;;13.41;69.58
3428;BME280;1727;42.624;23.406;2023-04-23T04:37:20;94892.63;;;13.55;68.45
3428;BME280;1727;42.624;23.406;2023-04-23T04:39:47;94897.59;;;13.58;67.42
3428;BME280;1727;42.624;23.406;2023-04-23T04:42:13;94898.78;;;13.46;67.55
3428;BME280;1727;42.624;23.406;2023-04-23T04:44:42;94905.63;;;14.02;72.02
3428;BME280;1727;42.624;23.406;2023-04-23T04:47:10;94913.31;;;14.13;67.42
3428;BME280;1727;42.624;23.406;2023-04-23T04:49:37;94901.56;;;14.25;66.81
3428;BME280;1727;42.624;23.406;2023-04-23T04:52:04;94907.28;;;14.56;65.90
3428;BME280;1727;42.624;23.406;2023-04-23T04:54:31;94904.00;;;14.80;64.22
3428;BME280;1727;42.624;23.406;2023-04-23T05:00:32;94900.41;;;15.15;63.11
3428;BME280;1727;42.624;23.406;2023-04-23T05:03:00;94902.97;;;15.33;62.18
3428;BME280;1727;42.624;23.406;2023-04-23T05:05:28;94900.88;;;15.53;62.60
3428;BME280;1727;42.624;23.406;2023-04-23T05:07:55;94902.13;;;15.67;61.33
3428;BME280;1727;42.624;23.406;2023-04-23T05:10:26;94900.38;;;15.49;61.00
3428;BME280;1727;42.624;23.406;2023-04-23T05:12:53;94902.66;;;15.44;61.24
3428;BME280;1727;42.624;23.406;2023-04-23T05:15:20;94912.56;;;15.34;61.83
3428;BME280;1727;42.624;23.406;2023-04-23T05:17:48;94910.09;;;15.07;62.81
3428;BME280;1727;42.624;23.406;2023-04-23T05:20:17;94908.44;;;15.40;62.46
3428;BME280;1727;42.624;23.406;2023-04-23T05:22:45;94905.25;;;15.62;61.69
3428;BME280;1727;42.624;23.406;2023-04-23T05:25:13;94910.16;;;16.07;61.41
3428;BME280;1727;42.624;23.406;2023-04-23T05:27:40;94900.25;;;16.58;59.51
3428;BME280;1727;42.624;23.406;2023-04-23T05:30:08;94902.41;;;16.71;57.86
3428;BME280;1727;42.624;23.406;2023-04-23T05:32:35;94906.06;;;16.78;58.44
3428;BME280;1727;42.624;23.406;2023-04-23T05:35:05;94909.50;;;16.46;58.78
3428;BME280;1727;42.624;23.406;2023-04-23T05:37:32;94914.16;;;16.36;57.98
3428;BME280;1727;42.624;23.406;2023-04-23T05:39:58;94913.50;;;16.42;58.17
3428;BME280;1727;42.624;23.406;2023-04-23T05:42:26;94910.16;;;16.07;59.43
3428;BME280;1727;42.624;23.406;2023-04-23T05:44:53;94910.63;;;16.03;61.30
3428;BME280;1727;42.624;23.406;2023-04-23T05:47:20;94910.50;;;16.37;61.40
3428;BME280;1727;42.624;23.406;2023-04-23T05:53:10;94915.91;;;17.25;57.48
3428;BME280;1727;42.624;23.406;2023-04-23T05:55:37;94916.41;;;17.20;58.26
3428;BME280;1727;42.624;23.406;2023-04-23T05:58:03;94904.78;;;17.38;58.82
3428;BME280;1727;42.624;23.406;2023-04-23T06:00:30;94910.41;;;17.82;57.61
3428;BME280;1727;42.624;23.406;2023-04-23T06:02:59;94908.50;;;17.99;55.83
3428;BME280;1727;42.624;23.406;2023-04-23T06:05:26;94916.47;;;17.99;54.94
3428;BME280;1727;42.624;23.406;2023-04-23T06:07:53;94907.34;;;18.24;54.62
3428;BME280;1727;42.624;23.406;2023-04-23T06:10:21;94901.81;;;18.34;55.08
3428;BME280;1727;42.624;23.406;2023-04-23T06:12:48;94905.22;;;18.42;54.83
3428;BME280;1727;42.624;23.406;2023-04-23T06:15:17;94912.97;;;18.52;53.32
3428;BME280;1727;42.624;23.406;2023-04-23T06:17:44;94912.78;;;18.31;54.48
3428;BME280;1727;42.624;23.406;2023-04-23T06:20:11;94910.00;;;18.24;53.57
3428;BME280;1727;42.624;23.406;2023-04-23T06:22:38;94907.72;;;18.67;54.35
3428;BME280;1727;42.624;23.406;2023-04-23T06:25:05;94903.03;;;18.69;53.06
3428;BME280;1727;42.624;23.406;2023-04-23T06:27:33;94907.81;;;18.73;53.96
3428;BME280;1727;42.624;23.406;2023-04-23T06:30:00;94903.09;;;18.98;53.49
3428;BME280;1727;42.624;23.406;2023-04-23T06:32:27;94898.25;;;19.02;53.99
3428;BME280;1727;42.624;23.406;2023-04-23T06:34:54;94891.84;;;19.26;53.64
3428;BME280;1727;42.624;23.406;2023-04-23T06:37:20;94903.19;;;19.05;52.57
3428;BME280;1727;42.624;23.406;2023-04-23T06:39:47;94904.03;;;19.05;53.81
3428;BME280;1727;42.624;23.406;2023-04-23T06:42:14;94900.38;;;18.69;54.50
3428;BME280;1727;42.624;23.406;2023-04-23T06:44:43;94898.09;;;18.66;54.78
3428;BME280;1727;42.624;23.406;2023-04-23T06:47:11;94890.63;;;18.99;54.86
3428;BME280;1727;42.624;23.406;2023-04-23T06:49:38;94891.38;;;18.93;55.10
3428;BME280;1727;42.624;23.406;2023-04-23T06:52:05;94891.47;;;18.99;55.24
3428;BME280;1727;42.624;23.406;2023-04-23T06:54:32;94897.66;;;18.77;54.63
3428;BME280;1727;42.624;23.406;2023-04-23T06:56:59;94891.16;;;18.56;55.84
3428;BME280;1727;42.624;23.406;2023-04-23T06:59:26;94884.06;;;18.49;56.70
3428;BME280;1727;42.624;23.406;2023-04-23T07:01:54;94889.88;;;18.30;56.65
3428;BME280;1727;42.624;23.406;2023-04-23T07:04:21;94887.97;;;18.38;57.40
3428;BME280;1727;42.624;23.406;2023-04-23T07:06:48;94893.19;;;18.54;57.65
3428;BME280;1727;42.624;23.406;2023-04-23T07:09:15;94887.50;;;18.95;55.15
3428;BME280;1727;42.624;23.406;2023-04-23T07:11:42;94888.06;;;19.05;54.67
3428;BME280;1727;42.624;23.406;2023-04-23T07:14:08;94888.25;;;18.89;54.97
3428;BME280;1727;42.624;23.406;2023-04-23T07:16:35;94887.00;;;19.14;54.61
3428;BME280;1727;42.624;23.406;2023-04-23T07:19:03;94895.56;;;19.54;52.81
3428;BME280;1727;42.624;23.406;2023-04-23T07:21:30;94884.06;;;19.54;52.49
3428;BME280;1727;42.624;23.406;2023-04-23T07:23:57;94886.00;;;19.15;53.62
3428;BME280;1727;42.624;23.406;2023-04-23T07:26:27;94886.34;;;19.12;53.34
3428;BME280;1727;42.624;23.406;2023-04-23T07:28:54;94880.03;;;18.76;54.38
3428;BME280;1727;42.624;23.406;2023-04-23T07:31:21;94882.00;;;18.97;54.00
3428;BME280;1727;42.624;23.406;2023-04-23T07:33:48;94874.34;;;19.46;54.48
3428;BME280;1727;42.624;23.406;2023-04-23T07:36:16;94881.19;;;19.85;51.17
3428;BME280;1727;42.624;23.406;2023-04-23T07:38:43;94871.41;;;20.06;52.04
3428;BME280;1727;42.624;23.406;2023-04-23T07:41:10;94883.22;;;19.83;51.68
3428;BME280;1727;42.624;23.406;2023-04-23T07:43:37;94880.84;;;19.43;51.41
3428;BME280;1727;42.624;23.406;2023-04-23T07:46:05;94877.34;;;19.28;52.72
3428;BME280;1727;42.624;23.406;2023-04-23T07:48:32;94878.38;;;19.12;54.27
3428;BME280;1727;42.624;23.406;2023-04-23T07:51:00;94880.22;;;19.12;53.40
3428;BME280;1727;42.624;23.406;2023-04-23T07:53:28;94881.03;;;19.12;53.58
3428;BME280;1727;42.624;23.406;2023-04-23T07:55:56;94873.38;;;18.57;55.01
3428;BME280;1727;42.624;23.406;2023-04-23T07:58:23;94878.13;;;18.70;53.94
3428;BME280;1727;42.624;23.406;2023-04-23T08:00:49;94877.16;;;18.17;54.77
3428;BME280;1727;42.624;23.406;2023-04-23T08:03:16;94884.75;;;18.28;54.69
3428;BME280;1727;42.624;23.406;2023-04-23T08:05:43;94870.31;;;18.45;54.16
3428;BME280;1727;42.624;23.406;2023-04-23T08:08:11;94873.75;;;18.92;53.79
3428;BME280;1727;42.624;23.406;2023-04-23T08:10:39;94867.28;;;19.38;53.72
3428;BME280;1727;42.624;23.406;2023-04-23T08:13:06;94868.94;;;19.69;52.21
3428;BME280;1727;42.624;23.406;2023-04-23T08:15:33;94874.97;;;19.77;50.94
3428;BME280;1727;42.624;23.406;2023-04-23T08:18:01;94874.84;;;19.86;49.85
3428;BME280;1727;42.624;23.406;2023-04-23T08:20:28;94873.63;;;20.03;49.82
3428;BME280;1727;42.624;23.406;2023-04-23T08:22:56;94866.47;;;19.89;49.84
3428;BME280;1727;42.624;23.406;2023-04-23T08:25:23;94866.59;;;19.80;50.51
3428;BME280;1727;42.624;23.406;2023-04-23T08:27:51;94873.25;;;19.70;50.60
3428;BME280;1727;42.624;23.406;2023-04-23T08:30:18;94859.19;;;19.17;51.56
3428;BME280;1727;42.624;23.406;2023-04-23T08:32:48;94850.56;;;19.30;51.44
3428;BME280;1727;42.624;23.406;2023-04-23T08:35:18;94855.59;;;18.95;51.62
3428;BME280;1727;42.624;23.406;2023-04-23T08:37:44;94852.06;;;18.65;52.58
3428;BME280;1727;42.624;23.406;2023-04-23T08:40:11;94856.38;;;18.66;52.95
3428;BME280;1727;42.624;23.406;2023-04-23T08:42:41;94860.22;;;18.64;53.04
3428;BME280;1727;42.624;23.406;2023-04-23T08:45:11;94859.28;;;18.56;54.09
3428;BME280;1727;42.624;23.406;2023-04-23T08:47:39;94854.59;;;18.96;52.76
3428;BME280;1727;42.624;23.406;2023-04-23T08:50:09;94834.22;;;19.03;52.71
3428;BME280;1727;42.624;23.406;2023-04-23T08:52:39;94835.63;;;19.14;53.68
3428;BME280;1727;42.624;23.406;2023-04-23T08:55:07;94848.91;;;18.99;52.67
3428;BME280;1727;42.624;23.406;2023-04-23T08:57:36;94842.16;;;19.11;51.65
3428;BME280;1727;42.624;23.406;2023-04-23T09:00:05;94841.78;;;19.14;50.98
3428;BME280;1727;42.624;23.406;2023-04-23T09:02:35;94843.31;;;18.79;51.66
3428;BME280;1727;42.624;23.406;2023-04-23T09:05:02;94831.53;;;18.36;53.76
3428;BME280;1727;42.624;23.406;2023-04-23T09:07:29;94834.38;;;18.35;54.79
3428;BME280;1727;42.624;23.406;2023-04-23T09:09:56;94827.94;;;18.52;53.21
3428;BME280;1727;42.624;23.406;2023-04-23T09:12:23;94839.34;;;18.75;52.61
3428;BME280;1727;42.624;23.406;2023-04-23T09:14:51;94837.16;;;18.94;51.92
3428;BME280;1727;42.624;23.406;2023-04-23T09:17:18;94849.50;;;18.34;51.72
3428;BME280;1727;42.624;23.406;2023-04-23T09:19:48;94835.63;;;18.62;51.87
3428;BME280;1727;42.624;23.406;2023-04-23T09:22:36;94830.28;;;18.99;51.36
3428;BME280;1727;42.624;23.406;2023-04-23T09:25:04;94826.25;;;19.03;50.75
3428;BME280;1727;42.624;23.406;2023-04-23T09:27:32;94819.94;;;19.19;50.82
3428;BME280;1727;42.624;23.406;2023-04-23T09:29:59;94824.59;;;19.46;49.80
3428;BME280;1727;42.624;23.406;2023-04-23T09:32:30;94827.78;;;19.71;49.38
3428;BME280;1727;42.624;23.406;2023-04-23T09:35:01;94822.13;;;19.45;48.61
3428;BME280;1727;42.624;23.406;2023-04-23T09:37:28;94824.78;;;19.01;48.61
3428;BME280;1727;42.624;23.406;2023-04-23T09:39:58;94816.41;;;19.33;48.84
3428;BME280;1727;42.624;23.406;2023-04-23T09:42:26;94813.78;;;19.18;48.23
3428;BME280;1727;42.624;23.406;2023-04-23T09:44:55;94812.25;;;18.80;49.05
3428;BME280;1727;42.624;23.406;2023-04-23T09:47:22;94807.47;;;18.90;49.03
3428;BME280;1727;42.624;23.406;2023-04-23T09:49:49;94795.38;;;18.87;49.59
3428;BME280;1727;42.624;23.406;2023-04-23T09:52:17;94805.06;;;18.95;50.85
3428;BME280;1727;42.624;23.406;2023-04-23T09:54:45;94793.44;;;18.96;49.17
3428;BME280;1727;42.624;23.406;2023-04-23T09:57:12;94792.97;;;19.07;48.80
3428;BME280;1727;42.624;23.406;2023-04-23T09:59:39;94789.56;;;19.28;48.43
3428;BME280;1727;42.624;23.406;2023-04-23T10:02:06;94796.44;;;19.23;47.28
3428;BME280;1727;42.624;23.406;2023-04-23T10:04:34;94781.22;;;19.16;46.99
3428;BME280;1727;42.624;23.406;2023-04-23T10:07:02;94781.34;;;19.08;47.94
3428;BME280;1727;42.624;23.406;2023-04-23T10:09:34;94783.59;;;19.26;48.51
3428;BME280;1727;42.624;23.406;2023-04-23T10:12:01;94779.59;;;18.86;49.21
3428;BME280;1727;42.624;23.406;2023-04-23T10:14:29;94786.91;;;18.99;48.64
3428;BME280;1727;42.624;23.406;2023-04-23T10:16:57;94772.03;;;18.60;49.60
3428;BME280;1727;42.624;23.406;2023-04-23T10:19:26;94782.16;;;18.42;49.87
3428;BME280;1727;42.624;23.406;2023-04-23T10:21:55;94776.94;;;18.48;49.90
3428;BME280;1727;42.624;23.406;2023-04-23T10:24:25;94765.22;;;18.28;50.32
3428;BME280;1727;42.624;23.406;2023-04-23T10:37:38;94747.59;;;19.45;45.74
3428;BME280;1727;42.624;23.406;2023-04-23T10:40:08;94745.56;;;19.47;46.70
3428;BME280;1727;42.624;23.406;2023-04-23T10:42:38;94744.81;;;19.17;45.72
3428;BME280;1727;42.624;23.406;2023-04-23T10:45:12;94743.81;;;19.03;46.53
3428;BME280;1727;42.624;23.406;2023-04-23T10:47:41;94742.22;;;19.24;47.80
3428;BME280;1727;42.624;23.406;2023-04-23T10:50:18;94748.34;;;19.39;44.88
3428;BME280;1727;42.624;23.406;2023-04-23T10:59:41;94729.59;;;19.11;43.79
3428;BME280;1727;42.624;23.406;2023-04-23T11:02:17;94726.63;;;19.21;43.13
3428;BME280;1727;42.624;23.406;2023-04-23T11:04:44;94714.00;;;19.44;44.35
3428;BME280;1727;42.624;23.406;2023-04-23T11:07:14;94706.72;;;19.67;44.00
3428;BME280;1727;42.624;23.406;2023-04-23T11:09:45;94714.81;;;19.80;42.61
3428;BME280;1727;42.624;23.406;2023-04-23T11:12:29;94709.59;;;19.94;42.36
3428;BME280;1727;42.624;23.406;2023-04-23T11:14:57;94707.00;;;19.79;42.24
3428;BME280;1727;42.624;23.406;2023-04-23T11:17:58;94706.50;;;19.33;42.55
3428;BME280;1727;42.624;23.406;2023-04-23T11:20:29;94698.00;;;19.59;42.61
3428;BME280;1727;42.624;23.406;2023-04-23T11:22:56;94699.59;;;19.74;41.92
3428;BME280;1727;42.624;23.406;2023-04-23T11:25:23;94698.06;;;19.65;41.51
3428;BME280;1727;42.624;23.406;2023-04-23T11:27:52;94697.13;;;19.37;40.13
3428;BME280;1727;42.624;23.406;2023-04-23T11:30:22;94694.72;;;19.21;40.02
3428;BME280;1727;42.624;23.406;2023-04-23T11:32:51;94688.59;;;19.41;38.47
3428;BME280;1727;42.624;23.406;2023-04-23T11:35:22;94687.56;;;19.57;39.26
3428;BME280;1727;42.624;23.406;2023-04-23T11:37:52;94682.03;;;19.59;36.77
3428;BME280;1727;42.624;23.406;2023-04-23T11:40:27;94683.28;;;19.41;36.93
3428;BME280;1727;42.624;23.406;2023-04-23T11:42:55;94680.50;;;19.49;37.34
3428;BME280;1727;42.624;23.406;2023-04-23T11:45:26;94657.50;;;19.63;37.82
3428;BME280;1727;42.624;23.406;2023-04-23T11:47:54;94670.41;;;19.88;37.14
3428;BME280;1727;42.624;23.406;2023-04-23T11:50:22;94664.31;;;19.51;37.61
3428;BME280;1727;42.624;23.406;2023-04-23T11:52:49;94662.88;;;19.48;36.17
3428;BME280;1727;42.624;23.406;2023-04-23T11:55:17;94660.94;;;19.57;34.10
3428;BME280;1727;42.624;23.406;2023-04-23T11:57:45;94654.22;;;19.61;35.02
3428;BME280;1727;42.624;23.406;2023-04-23T12:00:15;94656.47;;;19.86;34.82
3428;BME280;1727;42.624;23.406;2023-04-23T12:02:51;94646.34;;;19.53;38.39
3428;BME280;1727;42.624;23.406;2023-04-23T12:05:19;94641.81;;;19.68;40.97
3428;BME280;1727;42.624;23.406;2023-04-23T12:07:53;94647.75;;;19.70;41.59
3428;BME280;1727;42.624;23.406;2023-04-23T12:10:21;94642.41;;;18.92;41.25
3428;BME280;1727;42.624;23.406;2023-04-23T12:12:49;94651.34;;;18.54;41.39
3428;BME280;1727;42.624;23.406;2023-04-23T12:15:16;94637.69;;;18.43;41.65
3428;BME280;1727;42.624;23.406;2023-04-23T12:17:47;94651.97;;;18.42;39.86
3428;BME280;1727;42.624;23.406;2023-04-23T12:20:17;94638.25;;;18.38;40.20
3428;BME280;1727;42.624;23.406;2023-04-23T12:22:45;94649.06;;;18.51;38.13
3428;BME280;1727;42.624;23.406;2023-04-23T12:25:12;94639.44;;;18.65;37.69
3428;BME280;1727;42.624;23.406;2023-04-23T12:27:40;94633.34;;;18.86;38.10
3428;BME280;1727;42.624;23.406;2023-04-23T12:30:08;94624.41;;;19.08;38.91
3428;BME280;1727;42.624;23.406;2023-04-23T12:32:36;94630.75;;;19.29;39.14
3428;BME280;1727;42.624;23.406;2023-04-23T12:35:04;94618.34;;;19.57;38.98
3428;BME280;1727;42.624;23.406;2023-04-23T12:37:35;94619.72;;;19.74;38.29
3428;BME280;1727;42.624;23.406;2023-04-23T12:40:03;94618.09;;;19.73;36.71
3428;BME280;1727;42.624;23.406;2023-04-23T12:42:32;94622.47;;;19.88;33.53
3428;BME280;1727;42.624;23.406;2023-04-23T12:45:05;94622.91;;;19.91;33.12
3428;BME280;1727;42.624;23.406;2023-04-23T12:47:32;94619.53;;;19.76;33.54
3428;BME280;1727;42.624;23.406;2023-04-23T12:49:59;94610.59;;;19.62;32.94
3428;BME280;1727;42.624;23.406;2023-04-23T12:52:28;94616.81;;;19.48;34.10
3428;BME280;1727;42.624;23.406;2023-04-23T12:54:56;94612.94;;;19.50;34.58
3428;BME280;1727;42.624;23.406;2023-04-23T12:57:25;94615.22;;;19.32;35.07
3428;BME280;1727;42.624;23.406;2023-04-23T12:59:53;94607.81;;;19.28;36.15
3428;BME280;1727;42.624;23.406;2023-04-23T13:02:20;94611.63;;;19.40;36.03
3428;BME280;1727;42.624;23.406;2023-04-23T13:04:47;94611.75;;;19.10;36.05
3428;BME280;1727;42.624;23.406;2023-04-23T13:07:14;94620.41;;;19.19;36.48
3428;BME280;1727;42.624;23.406;2023-04-23T13:09:41;94607.81;;;19.28;37.21
3428;BME280;1727;42.624;23.406;2023-04-23T13:12:30;94616.03;;;19.33;37.03
3428;BME280;1727;42.624;23.406;2023-04-23T13:14:58;94600.06;;;19.33;36.22
3428;BME280;1727;42.624;23.406;2023-04-23T13:17:25;94612.13;;;19.50;36.72
3428;BME280;1727;42.624;23.406;2023-04-23T13:19:52;94609.78;;;19.62;37.82
3428;BME280;1727;42.624;23.406;2023-04-23T13:22:20;94607.19;;;19.68;37.11
3428;BME280;1727;42.624;23.406;2023-04-23T13:24:47;94607.03;;;19.76;35.75
3428;BME280;1727;42.624;23.406;2023-04-23T13:27:15;94606.47;;;19.81;35.49
3428;BME280;1727;42.624;23.406;2023-04-23T13:29:42;94601.38;;;19.86;35.84
3428;BME280;1727;42.624;23.406;2023-04-23T13:32:08;94607.13;;;19.90;34.92
3428;BME280;1727;42.624;23.406;2023-04-23T13:37:57;94607.63;;;20.00;34.53
3428;BME280;1727;42.624;23.406;2023-04-23T13:40:24;94600.50;;;20.07;35.32
3428;BME280;1727;42.624;23.406;2023-04-23T13:42:52;94599.53;;;20.21;35.31
3428;BME280;1727;42.624;23.406;2023-04-23T13:45:19;94596.34;;;20.32;35.72
3428;BME280;1727;42.624;23.406;2023-04-23T13:47:46;94586.22;;;20.21;36.48
3428;BME280;1727;42.624;23.406;2023-04-23T13:50:13;94593.16;;;20.44;36.93
3428;BME280;1727;42.624;23.406;2023-04-23T13:52:40;94589.53;;;20.58;36.27
3428;BME280;1727;42.624;23.406;2023-04-23T13:55:08;94581.97;;;20.68;36.52
3428;BME280;1727;42.624;23.406;2023-04-23T13:57:34;94584.06;;;20.79;36.82
3428;BME280;1727;42.624;23.406;2023-04-23T14:00:04;94583.06;;;20.87;37.10
3428;BME280;1727;42.624;23.406;2023-04-23T14:02:31;94582.00;;;20.81;35.84
3428;BME280;1727;42.624;23.406;2023-04-23T14:04:58;94586.97;;;20.84;36.60
3428;BME280;1727;42.624;23.406;2023-04-23T14:07:28;94587.81;;;20.91;36.34
3428;BME280;1727;42.624;23.406;2023-04-23T14:09:54;94592.69;;;20.81;33.58
3428;BME280;1727;42.624;23.406;2023-04-23T14:12:21;94584.19;;;20.58;31.80